Time;durP1;ratioP1;P1;durP2;ratioP2;P2;SDS_P1;SDS_P2;PMS_P1;PMS_P2;Temp;Humidity;BMP_temperature;BMP_pressure;BME280_temperature;BME280_humidity;BME280_pressure;Samples;Min_cycle;Max_cycle;Signal;HPM_P1;HPM_P2
2024/01/02 00:02:18;;;;;;;11.00;10.50;;;;;;;;;;5037365;28;20017;-60
2024/01/02 00:04:43;;;;;;;11.52;10.98;;;;;;;;;;5035493;28;20025;-60
2024/01/02 00:07:09;;;;;;;10.90;10.40;;;;;;;;;;5031470;28;20104;-61
2024/01/02 00:09:34;;;;;;;11.10;10.60;;;;;;;;;;5028991;28;20021;-60
2024/01/02 00:11:59;;;;;;;10.90;10.40;;;;;;;;;;5028774;28;20671;-61
2024/01/02 00:14:28;;;;;;;11.20;10.70;;;;;;;;;;5031432;28;20473;-58
2024/01/02 00:16:53;;;;;;;11.35;10.85;;;;;;;;;;5029886;28;20119;-59
2024/01/02 00:19:20;;;;;;;11.10;10.60;;;;;;;;;;5030125;28;20056;-60
2024/01/02 00:21:46;;;;;;;11.88;11.27;;;;;;;;;;5018722;28;20029;-59
2024/01/02 00:24:11;;;;;;;11.10;10.60;;;;;;;;;;5022475;28;20018;-61
2024/01/02 00:26:36;;;;;;;11.23;10.73;;;;;;;;;;5031002;28;20013;-61
2024/01/02 00:29:02;;;;;;;11.57;11.00;;;;;;;;;;5025864;28;20101;-60
2024/01/02 00:31:27;;;;;;;11.70;11.10;;;;;;;;;;5029917;28;20025;-61
2024/01/02 00:33:52;;;;;;;10.80;10.30;;;;;;;;;;5036399;28;20014;-60
2024/01/02 00:36:18;;;;;;;10.85;10.35;;;;;;;;;;5030102;28;20477;-61
2024/01/02 00:38:43;;;;;;;11.18;10.68;;;;;;;;;;5030618;28;20047;-59
2024/01/02 00:41:08;;;;;;;11.10;10.60;;;;;;;;;;5030004;28;20025;-60
2024/01/02 00:43:34;;;;;;;10.90;10.40;;;;;;;;;;5035787;28;20109;-61
2024/01/02 00:46:00;;;;;;;10.95;10.45;;;;;;;;;;5038636;28;20057;-60
2024/01/02 00:48:25;;;;;;;10.90;10.40;;;;;;;;;;5044133;28;20018;-59
2024/01/02 00:50:51;;;;;;;10.80;10.30;;;;;;;;;;5030969;28;20026;-60
2024/01/02 00:53:16;;;;;;;11.10;10.60;;;;;;;;;;5030144;28;20046;-60
2024/01/02 00:55:41;;;;;;;10.73;10.23;;;;;;;;;;5029587;28;20045;-60
2024/01/02 00:58:07;;;;;;;10.80;10.30;;;;;;;;;;5029738;28;20017;-61
2024/01/02 01:00:34;;;;;;;10.85;10.35;;;;;;;;;;5032261;28;20075;-61
2024/01/02 01:02:59;;;;;;;10.55;10.05;;;;;;;;;;5030483;28;20468;-61
2024/01/02 01:05:26;;;;;;;11.13;10.63;;;;;;;;;;5033906;28;20049;-61
2024/01/02 01:07:51;;;;;;;10.52;10.02;;;;;;;;;;5032340;28;20029;-61
2024/01/02 01:10:16;;;;;;;10.43;9.93;;;;;;;;;;5043232;28;20083;-61
2024/01/02 01:12:42;;;;;;;10.73;10.23;;;;;;;;;;5024772;28;20029;-61
2024/01/02 01:15:07;;;;;;;10.73;10.23;;;;;;;;;;5030871;28;20033;-61
2024/01/02 01:17:33;;;;;;;11.45;10.90;;;;;;;;;;5030014;28;20124;-61
2024/01/02 01:19:58;;;;;;;11.63;11.02;;;;;;;;;;5033046;28;20025;-61
2024/01/02 01:22:23;;;;;;;10.88;10.38;;;;;;;;;;5034120;28;20021;-61
2024/01/02 01:24:49;;;;;;;11.60;11.00;;;;;;;;;;5032812;28;20026;-61
2024/01/02 01:27:14;;;;;;;10.75;10.25;;;;;;;;;;5032889;28;20100;-61
2024/01/02 01:29:39;;;;;;;11.27;10.77;;;;;;;;;;5033905;28;20068;-60
2024/01/02 01:32:05;;;;;;;11.20;10.70;;;;;;;;;;5033884;28;20030;-59
2024/01/02 01:34:31;;;;;;;11.23;10.73;;;;;;;;;;5033873;28;20025;-60
2024/01/02 01:36:56;;;;;;;10.63;10.13;;;;;;;;;;5033906;28;20098;-59
2024/01/02 01:39:21;;;;;;;10.60;10.10;;;;;;;;;;5031409;28;20484;-60
2024/01/02 01:41:47;;;;;;;11.23;10.73;;;;;;;;;;5033942;28;20036;-61
2024/01/02 01:44:12;;;;;;;11.10;10.60;;;;;;;;;;5033177;28;20403;-60
2024/01/02 01:46:39;;;;;;;11.30;10.80;;;;;;;;;;5043317;28;20045;-60
2024/01/02 01:49:06;;;;;;;11.10;10.60;;;;;;;;;;5043575;28;20033;-60
2024/01/02 01:51:32;;;;;;;11.57;11.02;;;;;;;;;;5027311;28;20045;-60
2024/01/02 01:54:00;;;;;;;11.13;10.63;;;;;;;;;;5032679;28;20053;-61
2024/01/02 01:56:25;;;;;;;10.75;10.25;;;;;;;;;;5033981;28;20444;-60
2024/01/02 01:58:51;;;;;;;10.77;10.27;;;;;;;;;;5033513;28;20121;-60
2024/01/02 02:01:16;;;;;;;11.00;10.50;;;;;;;;;;5037212;28;20107;-60
2024/01/02 02:03:42;;;;;;;10.90;10.40;;;;;;;;;;5028824;28;20009;-60
2024/01/02 02:06:07;;;;;;;10.80;10.30;;;;;;;;;;5031974;28;20024;-60
2024/01/02 02:08:33;;;;;;;10.77;10.27;;;;;;;;;;5026830;28;20025;-60
2024/01/02 02:10:58;;;;;;;11.18;10.68;;;;;;;;;;5038271;28;20021;-60
2024/01/02 02:13:23;;;;;;;10.63;10.13;;;;;;;;;;5032561;28;20017;-61
2024/01/02 02:15:49;;;;;;;11.05;10.55;;;;;;;;;;5032593;28;20052;-60
2024/01/02 02:18:15;;;;;;;10.82;10.32;;;;;;;;;;5020152;28;20025;-60
2024/01/02 02:20:40;;;;;;;10.93;10.43;;;;;;;;;;5025405;28;20021;-60
2024/01/02 02:23:06;;;;;;;10.90;10.40;;;;;;;;;;5030689;28;20022;-60
2024/01/02 02:25:31;;;;;;;10.80;10.30;;;;;;;;;;5032939;28;20025;-61
2024/01/02 02:27:56;;;;;;;11.15;10.65;;;;;;;;;;5032895;28;20022;-60
2024/01/02 02:30:22;;;;;;;10.52;10.02;;;;;;;;;;5033077;28;20017;-60
2024/01/02 02:32:47;;;;;;;10.93;10.43;;;;;;;;;;5033087;28;20028;-60
2024/01/02 02:35:12;;;;;;;10.73;10.23;;;;;;;;;;5030123;28;20108;-60
2024/01/02 02:37:38;;;;;;;11.00;10.50;;;;;;;;;;5021895;28;20128;-60
2024/01/02 02:40:03;;;;;;;10.90;10.40;;;;;;;;;;5039029;28;20028;-63
2024/01/02 02:42:29;;;;;;;11.00;10.50;;;;;;;;;;5032557;28;20075;-61
2024/01/02 02:44:54;;;;;;;11.10;10.60;;;;;;;;;;5033146;28;20020;-60
2024/01/02 02:47:21;;;;;;;11.75;11.15;;;;;;;;;;5032638;28;20374;-60
2024/01/02 02:49:47;;;;;;;11.10;10.60;;;;;;;;;;5038659;28;20466;-61
2024/01/02 02:52:13;;;;;;;10.70;10.20;;;;;;;;;;5031981;28;20053;-61
2024/01/02 02:54:39;;;;;;;10.70;10.20;;;;;;;;;;5025477;28;20378;-60
2024/01/02 02:57:04;;;;;;;10.60;10.10;;;;;;;;;;5032200;28;20048;-60
2024/01/02 02:59:29;;;;;;;10.75;10.25;;;;;;;;;;5032607;28;20056;-61
2024/01/02 03:01:55;;;;;;;11.10;10.60;;;;;;;;;;5032099;28;20025;-60
2024/01/02 03:04:20;;;;;;;10.85;10.35;;;;;;;;;;5025556;28;20544;-61
2024/01/02 03:06:45;;;;;;;10.55;10.05;;;;;;;;;;5032885;28;20048;-60
2024/01/02 03:09:11;;;;;;;10.82;10.32;;;;;;;;;;5032406;28;20473;-61
2024/01/02 03:11:36;;;;;;;11.10;10.60;;;;;;;;;;5032238;28;20021;-61
2024/01/02 03:14:02;;;;;;;11.20;10.70;;;;;;;;;;5031924;28;20025;-60
2024/01/02 03:16:28;;;;;;;11.05;10.55;;;;;;;;;;5034489;28;20038;-62
2024/01/02 03:18:53;;;;;;;11.15;10.65;;;;;;;;;;5031414;28;20022;-61
2024/01/02 03:21:20;;;;;;;10.73;10.23;;;;;;;;;;5032237;28;20021;-59
2024/01/02 03:23:45;;;;;;;11.07;10.57;;;;;;;;;;5031909;28;20025;-60
2024/01/02 03:26:11;;;;;;;10.75;10.25;;;;;;;;;;5031436;28;20400;-60
2024/01/02 03:28:37;;;;;;;10.85;10.35;;;;;;;;;;5026585;28;20057;-61
2024/01/02 03:31:03;;;;;;;10.73;10.23;;;;;;;;;;5031973;28;20022;-60
2024/01/02 03:33:28;;;;;;;11.00;10.50;;;;;;;;;;5032376;28;20026;-60
2024/01/02 03:35:54;;;;;;;11.10;10.60;;;;;;;;;;5033547;28;20113;-60
2024/01/02 03:38:19;;;;;;;10.90;10.40;;;;;;;;;;5033061;28;20037;-60
2024/01/02 03:40:45;;;;;;;11.15;10.65;;;;;;;;;;5032085;28;20453;-60
2024/01/02 03:43:10;;;;;;;11.32;10.80;;;;;;;;;;5027330;28;20029;-60
2024/01/02 03:45:35;;;;;;;10.90;10.40;;;;;;;;;;5032001;28;20091;-60
2024/01/02 03:48:01;;;;;;;11.60;11.00;;;;;;;;;;5033641;28;20025;-61
2024/01/02 03:50:26;;;;;;;10.57;10.07;;;;;;;;;;5032276;28;20021;-60
2024/01/02 03:52:51;;;;;;;10.70;10.20;;;;;;;;;;5031985;28;20021;-60
2024/01/02 03:55:17;;;;;;;11.25;10.75;;;;;;;;;;5031490;28;20021;-60
2024/01/02 03:57:43;;;;;;;10.80;10.30;;;;;;;;;;5031032;28;20079;-59
2024/01/02 04:00:08;;;;;;;11.18;10.68;;;;;;;;;;5030530;28;20029;-60
2024/01/02 04:02:34;;;;;;;10.73;10.23;;;;;;;;;;5031288;28;20014;-60
2024/01/02 04:04:59;;;;;;;11.00;10.50;;;;;;;;;;5035299;28;20025;-60
2024/01/02 04:07:24;;;;;;;10.73;10.23;;;;;;;;;;5020783;28;20396;-60
2024/01/02 04:09:51;;;;;;;10.90;10.40;;;;;;;;;;5031100;28;20025;-61
2024/01/02 04:12:16;;;;;;;10.80;10.30;;;;;;;;;;5024003;28;20029;-60
2024/01/02 04:14:41;;;;;;;10.98;10.48;;;;;;;;;;5030771;28;20469;-59
2024/01/02 04:17:07;;;;;;;10.80;10.30;;;;;;;;;;5021407;28;20123;-59
2024/01/02 04:19:32;;;;;;;11.40;10.85;;;;;;;;;;5027445;28;20076;-60
2024/01/02 04:21:57;;;;;;;11.07;10.57;;;;;;;;;;5031036;28;20052;-60
2024/01/02 04:24:23;;;;;;;10.93;10.43;;;;;;;;;;5027718;28;20634;-60
2024/01/02 04:26:49;;;;;;;11.02;10.52;;;;;;;;;;5031520;28;20120;-60
2024/01/02 04:29:14;;;;;;;10.85;10.35;;;;;;;;;;5030570;28;20524;-60
2024/01/02 04:31:39;;;;;;;11.15;10.65;;;;;;;;;;5026651;28;20029;-59
2024/01/02 04:34:05;;;;;;;11.05;10.55;;;;;;;;;;5031188;28;20025;-61
2024/01/02 04:36:30;;;;;;;11.57;11.00;;;;;;;;;;5031268;28;20021;-59
2024/01/02 04:38:55;;;;;;;10.82;10.32;;;;;;;;;;5030693;28;20027;-60
2024/01/02 04:41:21;;;;;;;10.98;10.48;;;;;;;;;;5038908;28;20096;-60
2024/01/02 04:43:46;;;;;;;10.80;10.30;;;;;;;;;;5030746;28;20032;-60
2024/01/02 04:46:11;;;;;;;10.98;10.48;;;;;;;;;;5030931;28;20025;-60
2024/01/02 04:48:37;;;;;;;11.13;10.63;;;;;;;;;;5031888;28;20093;-60
2024/01/02 04:51:02;;;;;;;11.20;10.70;;;;;;;;;;5030217;28;20112;-60
2024/01/02 04:53:28;;;;;;;11.00;10.50;;;;;;;;;;5030681;28;20025;-59
2024/01/02 04:55:53;;;;;;;11.25;10.73;;;;;;;;;;5037689;28;20559;-59
2024/01/02 04:58:18;;;;;;;10.80;10.30;;;;;;;;;;5037848;28;20036;-60
2024/01/02 05:00:44;;;;;;;11.13;10.63;;;;;;;;;;5034714;28;20583;-61
2024/01/02 05:03:09;;;;;;;11.20;10.70;;;;;;;;;;5028145;28;20083;-61
2024/01/02 05:05:34;;;;;;;11.48;10.88;;;;;;;;;;5031777;28;20497;-60
2024/01/02 05:08:00;;;;;;;11.30;10.80;;;;;;;;;;5033656;28;20357;-61
2024/01/02 05:10:25;;;;;;;10.55;10.05;;;;;;;;;;5034134;28;20369;-60
2024/01/02 05:12:51;;;;;;;10.43;9.93;;;;;;;;;;5029056;28;20071;-60
2024/01/02 05:15:16;;;;;;;10.60;10.10;;;;;;;;;;5034182;28;20485;-61
2024/01/02 05:17:41;;;;;;;10.85;10.35;;;;;;;;;;5033271;28;20054;-60
2024/01/02 05:20:08;;;;;;;10.70;10.20;;;;;;;;;;5034037;28;20016;-60
2024/01/02 05:22:33;;;;;;;10.80;10.30;;;;;;;;;;5034477;28;20440;-60
2024/01/02 05:24:59;;;;;;;10.88;10.38;;;;;;;;;;5030794;28;20026;-61
2024/01/02 05:27:24;;;;;;;10.93;10.43;;;;;;;;;;5034755;28;20104;-61
2024/01/02 05:29:49;;;;;;;10.70;10.20;;;;;;;;;;5043849;28;20029;-60
2024/01/02 05:32:15;;;;;;;11.18;10.68;;;;;;;;;;5048229;28;20026;-61
2024/01/02 05:34:40;;;;;;;11.10;10.60;;;;;;;;;;5041768;28;20017;-60
2024/01/02 05:37:05;;;;;;;10.90;10.40;;;;;;;;;;5038915;28;20032;-60
2024/01/02 05:39:31;;;;;;;10.80;10.30;;;;;;;;;;5033845;28;20024;-60
2024/01/02 05:41:56;;;;;;;10.45;9.95;;;;;;;;;;5032765;28;20036;-60
2024/01/02 05:44:21;;;;;;;11.27;10.77;;;;;;;;;;5041657;28;20538;-60
2024/01/02 05:46:47;;;;;;;11.13;10.63;;;;;;;;;;5037885;28;20427;-61
2024/01/02 05:49:12;;;;;;;11.07;10.57;;;;;;;;;;5046268;28;20468;-60
2024/01/02 05:51:37;;;;;;;10.90;10.40;;;;;;;;;;5044320;28;20480;-61
2024/01/02 05:54:03;;;;;;;11.38;10.82;;;;;;;;;;5029078;28;20014;-61
2024/01/02 05:56:28;;;;;;;10.95;10.45;;;;;;;;;;5038534;28;20111;-60
2024/01/02 05:58:53;;;;;;;10.85;10.35;;;;;;;;;;5033512;28;20026;-60
2024/01/02 06:01:19;;;;;;;10.52;10.02;;;;;;;;;;5043172;28;20400;-61
2024/01/02 06:03:44;;;;;;;10.95;10.45;;;;;;;;;;5033364;28;20013;-61
2024/01/02 06:06:09;;;;;;;10.60;10.10;;;;;;;;;;5041422;28;20029;-60
2024/01/02 06:08:35;;;;;;;10.70;10.20;;;;;;;;;;5046382;28;20473;-60
2024/01/02 06:11:00;;;;;;;10.98;10.48;;;;;;;;;;5036156;28;20040;-60
2024/01/02 06:13:25;;;;;;;10.70;10.20;;;;;;;;;;5033145;28;20044;-60
2024/01/02 06:15:51;;;;;;;11.25;10.73;;;;;;;;;;5029038;28;20058;-60
2024/01/02 06:18:16;;;;;;;10.77;10.27;;;;;;;;;;5028314;28;20045;-59
2024/01/02 06:20:41;;;;;;;11.00;10.50;;;;;;;;;;5039490;28;20009;-60
2024/01/02 06:23:07;;;;;;;11.00;10.50;;;;;;;;;;5032932;28;20052;-62
2024/01/02 06:25:32;;;;;;;10.65;10.15;;;;;;;;;;5033062;28;20022;-61
2024/01/02 06:27:57;;;;;;;10.68;10.18;;;;;;;;;;5038047;28;20034;-60
2024/01/02 06:30:23;;;;;;;11.70;11.10;;;;;;;;;;5031873;28;20032;-60
2024/01/02 06:32:48;;;;;;;10.80;10.30;;;;;;;;;;5036946;28;20044;-60
2024/01/02 06:35:14;;;;;;;11.05;10.55;;;;;;;;;;5033802;28;20029;-59
2024/01/02 06:37:40;;;;;;;11.00;10.50;;;;;;;;;;5032616;28;20763;-60
2024/01/02 06:40:06;;;;;;;10.90;10.40;;;;;;;;;;5032628;28;20021;-60
2024/01/02 06:42:31;;;;;;;11.20;10.70;;;;;;;;;;5032937;28;20032;-59
2024/01/02 06:44:57;;;;;;;11.70;11.10;;;;;;;;;;5032857;28;20385;-60
2024/01/02 06:47:22;;;;;;;10.82;10.32;;;;;;;;;;5032752;28;20396;-60
2024/01/02 06:49:47;;;;;;;11.55;10.95;;;;;;;;;;5035957;28;20079;-60
2024/01/02 06:52:13;;;;;;;10.95;10.45;;;;;;;;;;5032691;28;20033;-60
2024/01/02 06:54:38;;;;;;;10.82;10.32;;;;;;;;;;5033143;28;20374;-60
2024/01/02 06:57:04;;;;;;;10.80;10.30;;;;;;;;;;5032601;28;20443;-60
2024/01/02 06:59:29;;;;;;;11.07;10.57;;;;;;;;;;5032164;28;20037;-60
2024/01/02 07:01:55;;;;;;;10.65;10.15;;;;;;;;;;5034073;28;20017;-60
2024/01/02 07:04:21;;;;;;;11.65;11.05;;;;;;;;;;5032088;28;20108;-61
2024/01/02 07:06:46;;;;;;;11.38;10.82;;;;;;;;;;5032482;28;20018;-61
2024/01/02 07:09:11;;;;;;;11.75;11.15;;;;;;;;;;5031700;28;20013;-60
2024/01/02 07:11:37;;;;;;;11.48;10.90;;;;;;;;;;5031728;28;20370;-60
2024/01/02 07:14:02;;;;;;;11.27;10.75;;;;;;;;;;5032068;28;20159;-62
2024/01/02 07:16:28;;;;;;;11.98;11.38;;;;;;;;;;5031161;28;20079;-61
2024/01/02 07:18:53;;;;;;;11.30;10.80;;;;;;;;;;5030621;28;20179;-61
2024/01/02 07:21:18;;;;;;;11.13;10.63;;;;;;;;;;5037981;28;20025;-61
2024/01/02 07:23:44;;;;;;;11.30;10.80;;;;;;;;;;5035670;28;20041;-61
2024/01/02 07:26:09;;;;;;;10.85;10.35;;;;;;;;;;5031888;28;20488;-60
2024/01/02 07:28:38;;;;;;;10.80;10.30;;;;;;;;;;5031535;28;20029;-61
2024/01/02 07:31:03;;;;;;;10.98;10.48;;;;;;;;;;5031882;28;20488;-61
2024/01/02 07:33:28;;;;;;;10.95;10.45;;;;;;;;;;5031978;28;20076;-60
2024/01/02 07:35:54;;;;;;;11.07;10.57;;;;;;;;;;5031550;28;20021;-60
2024/01/02 07:38:19;;;;;;;11.00;10.50;;;;;;;;;;5032103;28;20036;-61
2024/01/02 07:40:44;;;;;;;10.90;10.40;;;;;;;;;;5031397;28;20366;-61
2024/01/02 07:43:10;;;;;;;11.27;10.77;;;;;;;;;;5029873;28;20464;-60
2024/01/02 07:45:36;;;;;;;11.35;10.82;;;;;;;;;;5031507;28;20401;-60
2024/01/02 07:48:02;;;;;;;11.10;10.60;;;;;;;;;;5032427;28;20025;-60
2024/01/02 07:50:27;;;;;;;10.98;10.48;;;;;;;;;;5023696;28;20113;-61
2024/01/02 07:52:53;;;;;;;10.70;10.20;;;;;;;;;;5037609;28;20017;-60
2024/01/02 07:55:18;;;;;;;10.88;10.38;;;;;;;;;;5031115;28;20037;-61
2024/01/02 07:57:43;;;;;;;11.13;10.63;;;;;;;;;;5030508;28;20110;-60
2024/01/02 08:00:09;;;;;;;11.30;10.80;;;;;;;;;;5028449;28;20018;-60
2024/01/02 08:02:34;;;;;;;11.55;10.95;;;;;;;;;;5030961;28;20017;-61
2024/01/02 08:05:00;;;;;;;11.20;10.70;;;;;;;;;;5031599;28;20029;-62
2024/01/02 08:07:25;;;;;;;11.43;10.88;;;;;;;;;;5030754;28;20109;-61
2024/01/02 08:09:50;;;;;;;11.18;10.68;;;;;;;;;;5031107;28;20035;-61
2024/01/02 08:12:16;;;;;;;11.18;10.68;;;;;;;;;;5031346;28;20469;-61
2024/01/02 08:14:41;;;;;;;11.68;11.07;;;;;;;;;;5030218;28;20029;-60
2024/01/02 08:17:06;;;;;;;11.25;10.75;;;;;;;;;;5021002;28;20445;-61
2024/01/02 08:19:32;;;;;;;10.77;10.27;;;;;;;;;;5036183;28;20388;-61
2024/01/02 08:21:57;;;;;;;11.45;10.93;;;;;;;;;;5036133;28;20457;-60
2024/01/02 08:24:22;;;;;;;10.75;10.25;;;;;;;;;;5031842;28;20071;-61
2024/01/02 08:26:48;;;;;;;11.00;10.50;;;;;;;;;;5031276;28;20136;-62
2024/01/02 08:29:13;;;;;;;11.38;10.88;;;;;;;;;;5030921;28;20025;-61
2024/01/02 08:31:39;;;;;;;12.07;11.48;;;;;;;;;;5023113;28;20488;-61
2024/01/02 08:34:05;;;;;;;11.52;11.02;;;;;;;;;;5036508;28;20025;-60
2024/01/02 08:36:30;;;;;;;11.40;10.90;;;;;;;;;;5037091;28;20030;-60
2024/01/02 08:38:56;;;;;;;11.50;11.00;;;;;;;;;;5030580;28;20036;-61
2024/01/02 08:41:22;;;;;;;11.40;10.90;;;;;;;;;;5030821;28;20424;-59
2024/01/02 08:43:47;;;;;;;11.77;11.18;;;;;;;;;;5030647;28;20014;-60
2024/01/02 08:46:13;;;;;;;11.43;10.93;;;;;;;;;;5030766;28;20486;-60
2024/01/02 08:48:38;;;;;;;11.43;10.93;;;;;;;;;;5037740;28;20436;-59
2024/01/02 08:51:04;;;;;;;12.07;11.48;;;;;;;;;;5030895;28;20018;-60
2024/01/02 08:53:30;;;;;;;11.30;10.80;;;;;;;;;;5030542;28;20504;-61
2024/01/02 08:55:55;;;;;;;11.43;10.93;;;;;;;;;;5031061;28;20100;-59
2024/01/02 08:58:21;;;;;;;11.50;11.00;;;;;;;;;;5030345;28;20100;-60
2024/01/02 09:00:46;;;;;;;12.02;11.43;;;;;;;;;;5031507;28;20439;-61
2024/01/02 09:03:12;;;;;;;11.98;11.38;;;;;;;;;;5030948;28;20032;-60
2024/01/02 09:05:37;;;;;;;12.13;11.52;;;;;;;;;;5018309;28;20137;-59
2024/01/02 09:08:04;;;;;;;11.48;10.98;;;;;;;;;;5030292;28;20056;-62
2024/01/02 09:10:29;;;;;;;11.88;11.27;;;;;;;;;;5030581;28;20033;-61
2024/01/02 09:12:55;;;;;;;12.25;11.65;;;;;;;;;;5024509;28;20030;-60
2024/01/02 09:15:20;;;;;;;12.07;11.48;;;;;;;;;;5030108;28;20057;-60
2024/01/02 09:17:46;;;;;;;11.15;10.65;;;;;;;;;;5025199;28;20084;-59
2024/01/02 09:20:11;;;;;;;11.80;11.20;;;;;;;;;;5033179;28;20102;-61
2024/01/02 09:22:37;;;;;;;11.80;11.30;;;;;;;;;;5021309;28;20104;-61
2024/01/02 09:25:02;;;;;;;11.70;11.20;;;;;;;;;;5030444;28;20028;-61
2024/01/02 09:27:32;;;;;;;12.07;11.48;;;;;;;;;;5030293;28;20112;-61
2024/01/02 09:30:00;;;;;;;11.65;11.15;;;;;;;;;;5030475;28;20056;-62
2024/01/02 09:32:26;;;;;;;12.13;11.55;;;;;;;;;;5041344;28;20029;-61
2024/01/02 09:34:51;;;;;;;12.48;11.88;;;;;;;;;;5030002;28;20120;-60
2024/01/02 09:37:17;;;;;;;11.88;11.30;;;;;;;;;;5032573;28;20083;-60
2024/01/02 09:39:43;;;;;;;11.65;11.15;;;;;;;;;;5030905;28;20520;-61
2024/01/02 09:42:27;;;;;;;12.23;11.63;;;;;;;;;;5034940;28;20078;-60
2024/01/02 09:45:02;;;;;;;12.18;11.57;;;;;;;;;;5034724;28;20021;-61
2024/01/02 09:47:36;;;;;;;12.20;11.63;;;;;;;;;;5034612;28;20029;-61
2024/01/02 09:50:09;;;;;;;12.15;11.55;;;;;;;;;;5034341;28;20088;-61
2024/01/02 09:52:42;;;;;;;12.18;11.57;;;;;;;;;;5033237;28;20091;-61
2024/01/02 09:55:19;;;;;;;12.25;11.65;;;;;;;;;;5032341;28;20029;-61
2024/01/02 09:58:08;;;;;;;11.82;11.32;;;;;;;;;;5035187;28;20017;-60
2024/01/02 10:00:33;;;;;;;11.88;11.38;;;;;;;;;;5034917;28;20043;-60
2024/01/02 10:03:17;;;;;;;12.40;11.80;;;;;;;;;;5034096;28;20133;-61
2024/01/02 10:06:01;;;;;;;12.00;11.45;;;;;;;;;;5031660;28;20017;-60
2024/01/02 10:08:29;;;;;;;12.33;11.73;;;;;;;;;;5026746;28;20029;-60
2024/01/02 10:10:57;;;;;;;11.77;11.27;;;;;;;;;;5032967;28;20354;-61
2024/01/02 10:13:32;;;;;;;11.50;11.00;;;;;;;;;;5025789;28;20036;-61
2024/01/02 10:16:17;;;;;;;12.00;11.40;;;;;;;;;;5031286;28;20460;-62
2024/01/02 10:18:45;;;;;;;11.70;11.20;;;;;;;;;;5031077;28;20029;-61
2024/01/02 10:21:49;;;;;;;12.20;11.60;;;;;;;;;;5027544;28;20052;-61
2024/01/02 10:24:15;;;;;;;11.90;11.35;;;;;;;;;;5006369;28;20061;-61
2024/01/02 10:26:44;;;;;;;12.20;11.60;;;;;;;;;;4998588;28;20054;-61
2024/01/02 10:29:12;;;;;;;12.35;11.75;;;;;;;;;;5006083;28;20064;-60
2024/01/02 10:31:53;;;;;;;12.27;11.68;;;;;;;;;;5043396;28;20021;-61
2024/01/02 10:34:35;;;;;;;11.60;11.10;;;;;;;;;;5023155;28;20101;-61
2024/01/02 10:37:04;;;;;;;11.50;11.00;;;;;;;;;;5030108;28;20103;-61
2024/01/02 10:39:52;;;;;;;11.77;11.27;;;;;;;;;;5032178;28;20511;-61
2024/01/02 10:42:42;;;;;;;11.60;11.10;;;;;;;;;;5025588;28;20056;-61
2024/01/02 10:45:14;;;;;;;12.15;11.55;;;;;;;;;;5028471;28;20382;-61
2024/01/02 10:48:04;;;;;;;11.77;11.27;;;;;;;;;;5033048;28;20029;-62
2024/01/02 10:50:39;;;;;;;11.52;11.02;;;;;;;;;;5033526;28;20079;-60
2024/01/02 10:53:22;;;;;;;12.27;11.68;;;;;;;;;;5032091;28;20024;-61
2024/01/02 10:55:49;;;;;;;13.63;12.93;;;;;;;;;;5025403;28;20104;-61
2024/01/02 10:58:19;;;;;;;12.43;11.82;;;;;;;;;;5032692;28;20540;-62
2024/01/02 11:00:50;;;;;;;12.60;12.00;;;;;;;;;;5028918;28;20053;-61
2024/01/02 11:03:17;;;;;;;12.35;11.75;;;;;;;;;;5031196;28;20029;-61
2024/01/02 11:05:44;;;;;;;12.10;11.50;;;;;;;;;;5028226;28;20017;-61
2024/01/02 11:08:14;;;;;;;12.18;11.57;;;;;;;;;;5032534;28;20021;-61
2024/01/02 11:10:59;;;;;;;12.23;11.63;;;;;;;;;;5047055;28;20040;-61
2024/01/02 11:13:29;;;;;;;12.07;11.50;;;;;;;;;;5025052;28;20127;-59
2024/01/02 11:15:59;;;;;;;12.48;11.88;;;;;;;;;;5031620;28;20482;-60
2024/01/02 11:18:27;;;;;;;12.25;11.65;;;;;;;;;;5029543;28;20021;-62
2024/01/02 11:21:08;;;;;;;12.45;11.85;;;;;;;;;;5041650;28;20029;-61
2024/01/02 11:23:40;;;;;;;11.90;11.40;;;;;;;;;;5038362;28;20017;-61
2024/01/02 11:26:16;;;;;;;12.20;11.60;;;;;;;;;;5031643;28;20018;-60
2024/01/02 11:28:45;;;;;;;11.90;11.40;;;;;;;;;;5032018;28;20021;-62
2024/01/02 11:31:12;;;;;;;12.30;11.70;;;;;;;;;;5031717;28;20045;-61
2024/01/02 11:33:39;;;;;;;13.05;12.45;;;;;;;;;;5034175;28;20364;-62
2024/01/02 11:36:08;;;;;;;12.23;11.63;;;;;;;;;;5037739;28;20017;-62
2024/01/02 11:38:42;;;;;;;12.43;11.82;;;;;;;;;;5032257;28;20024;-61
2024/01/02 11:41:22;;;;;;;12.43;11.82;;;;;;;;;;5032115;28;20018;-61
2024/01/02 11:43:50;;;;;;;12.70;12.10;;;;;;;;;;5045379;28;20353;-62
2024/01/02 11:46:16;;;;;;;12.40;11.80;;;;;;;;;;5030417;28;20013;-60
2024/01/02 11:48:48;;;;;;;12.30;11.70;;;;;;;;;;5033280;28;20362;-61
2024/01/02 11:51:21;;;;;;;12.40;11.80;;;;;;;;;;5033031;28;20029;-61
2024/01/02 11:53:52;;;;;;;12.18;11.57;;;;;;;;;;5031269;28;20040;-61
2024/01/02 11:56:18;;;;;;;11.88;11.38;;;;;;;;;;5032206;28;20493;-62
2024/01/02 11:58:52;;;;;;;12.43;11.82;;;;;;;;;;5030649;28;20053;-60
2024/01/02 12:01:34;;;;;;;12.35;11.75;;;;;;;;;;5033268;28;20367;-61
2024/01/02 12:04:02;;;;;;;12.70;12.10;;;;;;;;;;5032666;28;20021;-61
2024/01/02 12:06:43;;;;;;;12.25;11.65;;;;;;;;;;5019994;28;20021;-60
2024/01/02 12:09:14;;;;;;;11.90;11.40;;;;;;;;;;5034693;28;20025;-61
2024/01/02 12:11:43;;;;;;;12.75;12.15;;;;;;;;;;5033065;28;20510;-61
2024/01/02 12:14:26;;;;;;;12.82;12.23;;;;;;;;;;5029618;28;20043;-61
2024/01/02 12:16:53;;;;;;;12.77;12.17;;;;;;;;;;5027295;28;20057;-60
2024/01/02 12:19:22;;;;;;;12.27;11.68;;;;;;;;;;5038157;28;20430;-60
2024/01/02 12:21:48;;;;;;;11.90;11.40;;;;;;;;;;5035200;28;20022;-60
2024/01/02 12:24:16;;;;;;;12.02;11.43;;;;;;;;;;5032633;28;20028;-61
2024/01/02 12:26:43;;;;;;;12.05;11.50;;;;;;;;;;5032832;28;20020;-61
2024/01/02 12:29:10;;;;;;;12.50;11.90;;;;;;;;;;5030368;28;20033;-61
2024/01/02 12:31:39;;;;;;;12.60;12.00;;;;;;;;;;5032407;28;20023;-60
2024/01/02 12:34:13;;;;;;;12.30;11.70;;;;;;;;;;5031131;28;20075;-60
2024/01/02 12:36:45;;;;;;;11.93;11.43;;;;;;;;;;5034305;28;20500;-61
2024/01/02 12:39:14;;;;;;;12.32;11.73;;;;;;;;;;5031021;28;20046;-61
2024/01/02 12:41:51;;;;;;;12.10;11.50;;;;;;;;;;5038245;28;20048;-61
2024/01/02 12:44:18;;;;;;;12.02;11.50;;;;;;;;;;5030949;28;20040;-62
2024/01/02 12:46:49;;;;;;;12.00;11.50;;;;;;;;;;5023972;28;20684;-62
2024/01/02 12:49:23;;;;;;;12.00;11.45;;;;;;;;;;5045027;28;20431;-61
2024/01/02 12:51:50;;;;;;;12.65;12.05;;;;;;;;;;5036831;28;20052;-61
2024/01/02 12:54:22;;;;;;;13.75;13.05;;;;;;;;;;5031011;28;20037;-60
2024/01/02 12:56:51;;;;;;;12.10;11.50;;;;;;;;;;5031465;28;20028;-62
2024/01/02 12:59:17;;;;;;;12.02;11.43;;;;;;;;;;5028016;28;20044;-62
2024/01/02 13:01:42;;;;;;;12.40;11.80;;;;;;;;;;5037422;28;20013;-61
2024/01/02 13:04:12;;;;;;;12.90;12.30;;;;;;;;;;5029125;28;20057;-62
2024/01/02 13:06:39;;;;;;;12.70;12.10;;;;;;;;;;5023403;28;20021;-61
2024/01/02 13:09:05;;;;;;;12.40;11.80;;;;;;;;;;5031911;28;20021;-61
2024/01/02 13:11:31;;;;;;;12.52;11.93;;;;;;;;;;5028721;28;20022;-61
2024/01/02 13:13:56;;;;;;;11.90;11.40;;;;;;;;;;5025006;28;20113;-62
2024/01/02 13:16:22;;;;;;;12.40;11.80;;;;;;;;;;5021690;28;20120;-61
2024/01/02 13:18:50;;;;;;;12.45;11.85;;;;;;;;;;5033395;28;20045;-62
2024/01/02 13:21:16;;;;;;;11.77;11.27;;;;;;;;;;5031677;28;20465;-62
2024/01/02 13:23:55;;;;;;;12.18;11.57;;;;;;;;;;5035327;28;20022;-61
2024/01/02 13:26:21;;;;;;;12.18;11.57;;;;;;;;;;5033555;28;20022;-60
2024/01/02 13:28:50;;;;;;;11.95;11.43;;;;;;;;;;5034615;28;20052;-61
2024/01/02 13:31:27;;;;;;;12.23;11.63;;;;;;;;;;5028949;28;20529;-61
2024/01/02 13:33:53;;;;;;;12.52;11.93;;;;;;;;;;5033048;28;20064;-61
2024/01/02 13:36:18;;;;;;;11.80;11.27;;;;;;;;;;5039123;28;20029;-61
2024/01/02 13:38:44;;;;;;;12.57;11.98;;;;;;;;;;5038261;28;20666;-61
2024/01/02 13:41:10;;;;;;;12.18;11.57;;;;;;;;;;5029329;28;20103;-61
2024/01/02 13:43:35;;;;;;;12.27;11.68;;;;;;;;;;5028872;28;20047;-61
2024/01/02 13:46:18;;;;;;;12.27;11.68;;;;;;;;;;5031685;28;20033;-61
2024/01/02 13:48:56;;;;;;;12.10;11.50;;;;;;;;;;5034331;28;20037;-60
2024/01/02 13:51:22;;;;;;;12.50;11.90;;;;;;;;;;5036791;28;20488;-61
2024/01/02 13:53:55;;;;;;;13.20;12.57;;;;;;;;;;5027265;28;20025;-62
2024/01/02 13:56:20;;;;;;;11.85;11.35;;;;;;;;;;5027032;28;20033;-62
2024/01/02 13:58:54;;;;;;;12.02;11.48;;;;;;;;;;5028334;28;20033;-61
2024/01/02 14:01:50;;;;;;;12.10;11.50;;;;;;;;;;5031355;28;20138;-60
2024/01/02 14:04:22;;;;;;;12.45;11.85;;;;;;;;;;5022429;28;20095;-60
2024/01/02 14:06:48;;;;;;;12.43;11.82;;;;;;;;;;5028146;28;20017;-61
2024/01/02 14:09:23;;;;;;;11.75;11.25;;;;;;;;;;5032178;28;20090;-60
2024/01/02 14:11:52;;;;;;;11.60;11.10;;;;;;;;;;5025166;28;20477;-62
2024/01/02 14:14:20;;;;;;;12.70;12.10;;;;;;;;;;5030228;28;20022;-62
2024/01/02 14:16:46;;;;;;;12.10;11.50;;;;;;;;;;5028738;28;20051;-61
2024/01/02 14:19:12;;;;;;;13.32;12.65;;;;;;;;;;5028630;28;20551;-62